createdAt,value
2023-02-03T00:09:03.333Z,-1.95
2023-02-03T00:50:38.239Z,-1.86
2023-02-03T01:41:57.998Z,-1.45
2023-02-03T02:18:20.913Z,-1.27
2023-02-03T02:22:45.698Z,-1.29
2023-02-03T02:27:16.369Z,-1.33
2023-02-03T03:57:44.197Z,-2.06
2023-02-03T05:10:42.121Z,-2.15
2023-02-03T05:26:53.427Z,-1.95
2023-02-03T05:57:15.390Z,-1.73
2023-02-03T06:05:23.638Z,-1.67
2023-02-03T06:17:57.956Z,-1.67
2023-02-03T06:36:37.132Z,-1.66
2023-02-03T07:05:25.415Z,-1.41
2023-02-03T07:16:39.822Z,-1.18
2023-02-03T07:20:36.598Z,-1.15
2023-02-03T07:24:48.668Z,-0.99
2023-02-03T15:51:50.204Z,-0.45
2023-02-03T16:07:06.044Z,-0.35
2023-02-03T16:11:01.499Z,-0.41
2023-02-03T16:15:14.082Z,-0.17
2023-02-03T16:19:20.521Z,-0.13
2023-02-03T16:27:55.202Z,-0.35
2023-02-03T16:31:53.119Z,-0.50
2023-02-03T16:35:59.732Z,-0.52
2023-02-03T16:40:05.131Z,-0.55
2023-02-03T16:44:19.050Z,-0.42
2023-02-03T16:48:21.134Z,-0.46
2023-02-03T16:52:25.754Z,-0.51
2023-02-03T17:04:46.231Z,-0.66
2023-02-03T17:12:49.549Z,-0.97
2023-02-03T17:24:02.121Z,-0.84
2023-02-03T17:28:10.140Z,-0.86
2023-02-03T17:32:00.986Z,-0.84
2023-02-03T17:55:33.437Z,-0.62
2023-02-03T17:59:54.043Z,-0.55
2023-02-03T18:04:06.208Z,-0.49
2023-02-03T18:12:19.888Z,-0.45
2023-02-03T18:20:45.255Z,-0.37
2023-02-03T18:25:04.093Z,-0.38
2023-02-03T18:29:16.399Z,-0.38
2023-02-03T18:37:51.486Z,-0.40
2023-02-03T18:42:20.095Z,-0.46
2023-02-03T18:46:18.212Z,-0.51
2023-02-03T18:54:34.679Z,-0.60
2023-02-03T18:58:40.115Z,-0.65
2023-02-03T19:06:39.422Z,-0.64
2023-02-03T19:10:49.512Z,-0.64
2023-02-03T19:14:56.220Z,-0.67
2023-02-03T19:18:46.542Z,-0.66
2023-02-03T19:26:35.393Z,-0.66
2023-02-03T19:37:57.337Z,-0.78
2023-02-03T19:41:51.072Z,-0.83
2023-02-03T19:49:48.660Z,-0.90
2023-02-03T19:57:52.271Z,-0.92
2023-02-03T20:02:06.551Z,-0.95
2023-02-03T20:09:36.159Z,-0.91
2023-02-03T20:16:59.032Z,-0.90
2023-02-03T20:21:11.257Z,-0.95
2023-02-03T20:28:52.201Z,-1.06
2023-02-03T20:49:37.752Z,-1.23
2023-02-03T20:53:42.357Z,-1.19
2023-02-03T21:15:14.773Z,-1.07
2023-02-03T21:19:26.771Z,-1.01
2023-02-03T21:38:02.946Z,-1.05
2023-02-03T21:42:42.485Z,-1.09
2023-02-03T22:10:57.527Z,-1.21
2023-02-03T22:18:27.341Z,-1.23
2023-02-03T22:25:51.738Z,-1.34
2023-02-03T22:34:12.054Z,-1.44
2023-02-03T22:38:12.272Z,-1.47
2023-02-03T22:49:11.966Z,-1.64
2023-02-03T22:53:19.651Z,-1.69
2023-02-03T23:04:35.676Z,-1.62
2023-02-03T23:20:00.179Z,-1.81
2023-02-03T23:28:49.126Z,-1.75
2023-02-03T23:32:53.409Z,-1.70
2023-02-03T23:37:20.578Z,-1.66
2023-02-03T23:52:39.592Z,-1.50
2023-02-03T23:56:35.595Z,-1.55
